createdAt,value
2022-12-03T00:01:43.020Z,100.00
2022-12-03T00:04:45.716Z,100.00
2022-12-03T00:07:48.511Z,100.00
2022-12-03T00:10:51.929Z,100.00
2022-12-03T00:13:54.682Z,100.00
2022-12-03T00:16:57.527Z,100.00
2022-12-03T00:20:00.606Z,100.00
2022-12-03T00:23:03.384Z,100.00
2022-12-03T00:26:06.231Z,100.00
2022-12-03T00:29:09.127Z,100.00
2022-12-03T00:32:12.022Z,100.00
2022-12-03T00:35:14.875Z,100.00
2022-12-03T00:38:17.697Z,100.00
2022-12-03T00:41:20.550Z,100.00
2022-12-03T00:44:23.372Z,100.00
2022-12-03T00:47:26.118Z,100.00
2022-12-03T00:50:28.998Z,100.00
2022-12-03T00:53:31.819Z,100.00
2022-12-03T00:56:34.567Z,100.00
2022-12-03T00:59:37.352Z,100.00
2022-12-03T01:02:40.222Z,100.00
2022-12-03T01:05:43.131Z,100.00
2022-12-03T01:08:45.870Z,100.00
2022-12-03T01:11:48.684Z,100.00
2022-12-03T01:14:51.819Z,100.00
2022-12-03T01:17:54.923Z,100.00
2022-12-03T01:20:57.692Z,100.00
2022-12-03T01:24:00.811Z,100.00
2022-12-03T01:27:03.665Z,100.00
2022-12-03T01:30:07.526Z,100.00
2022-12-03T01:33:10.241Z,100.00
2022-12-03T01:36:13.091Z,100.00
2022-12-03T01:39:15.914Z,100.00
2022-12-03T01:42:31.126Z,100.00
2022-12-03T01:45:33.949Z,100.00
2022-12-03T01:48:38.529Z,100.00
2022-12-03T01:51:41.406Z,100.00
2022-12-03T01:55:06.241Z,100.00
2022-12-03T01:58:13.247Z,100.00
2022-12-03T02:01:18.712Z,100.00
2022-12-03T02:04:22.764Z,100.00
2022-12-03T02:07:28.856Z,100.00
2022-12-03T02:10:36.316Z,100.00
2022-12-03T02:13:39.286Z,100.00
2022-12-03T02:16:43.318Z,100.00
2022-12-03T02:19:46.908Z,100.00
2022-12-03T02:23:02.108Z,100.00
2022-12-03T02:26:05.191Z,100.00
2022-12-03T02:29:08.109Z,100.00
2022-12-03T02:32:11.108Z,100.00
2022-12-03T02:35:16.862Z,100.00
2022-12-03T02:38:27.060Z,100.00
2022-12-03T02:41:48.571Z,99.87
2022-12-03T02:44:51.993Z,100.00
2022-12-03T02:48:04.006Z,100.00
2022-12-03T02:51:09.499Z,100.00
2022-12-03T02:54:12.318Z,99.96
2022-12-03T02:57:16.575Z,100.00
2022-12-03T03:00:20.119Z,99.63
2022-12-03T03:03:25.846Z,99.55
2022-12-03T03:06:29.090Z,99.34
2022-12-03T03:09:34.095Z,99.02
2022-12-03T03:12:39.330Z,99.08
2022-12-03T03:15:43.112Z,99.10
2022-12-03T03:18:45.967Z,99.79
2022-12-03T03:21:48.747Z,99.59
2022-12-03T03:24:51.813Z,99.99
2022-12-03T03:27:54.806Z,99.77
2022-12-03T03:31:00.915Z,99.59
2022-12-03T03:34:03.924Z,99.89
2022-12-03T03:37:06.732Z,99.72
2022-12-03T03:40:10.008Z,99.49
2022-12-03T03:43:13.570Z,100.00
2022-12-03T03:46:17.654Z,99.56
2022-12-03T03:49:21.325Z,99.54
2022-12-03T03:52:24.640Z,99.24
2022-12-03T03:55:27.972Z,99.02
2022-12-03T03:58:31.089Z,99.14
2022-12-03T04:01:34.365Z,98.97
2022-12-03T04:04:37.378Z,98.79
2022-12-03T04:07:40.136Z,98.73
2022-12-03T04:11:01.491Z,98.58
2022-12-03T04:14:04.333Z,99.01
2022-12-03T04:17:07.094Z,98.92
2022-12-03T04:20:10.380Z,99.19
2022-12-03T04:23:13.102Z,98.89
2022-12-03T04:26:34.291Z,99.10
2022-12-03T04:29:37.374Z,99.44
2022-12-03T04:32:58.463Z,99.52
2022-12-03T04:36:01.189Z,99.33
2022-12-03T04:39:04.613Z,99.02
2022-12-03T04:42:08.043Z,99.05
2022-12-03T04:45:11.237Z,99.33
2022-12-03T04:48:14.075Z,99.03
2022-12-03T04:51:16.795Z,99.21
2022-12-03T04:54:19.713Z,99.03
2022-12-03T04:57:22.485Z,99.30
2022-12-03T05:00:25.422Z,99.30
2022-12-03T05:03:32.490Z,98.84
2022-12-03T05:06:35.257Z,98.87
2022-12-03T05:09:38.124Z,98.93
2022-12-03T05:12:40.975Z,98.84
2022-12-03T05:15:43.700Z,98.66
2022-12-03T05:18:46.635Z,98.69
2022-12-03T05:21:49.367Z,98.72
2022-12-03T05:24:52.577Z,98.72
2022-12-03T05:27:55.608Z,99.00
2022-12-03T05:30:58.469Z,98.44
2022-12-03T05:34:01.297Z,98.63
2022-12-03T05:37:04.093Z,98.78
2022-12-03T05:40:07.856Z,98.44
2022-12-03T05:43:10.826Z,98.50
2022-12-03T05:46:13.728Z,98.25
2022-12-03T05:49:16.609Z,98.08
2022-12-03T05:52:19.369Z,97.66
2022-12-03T05:55:22.525Z,97.99
2022-12-03T05:58:25.349Z,98.15
2022-12-03T06:01:28.168Z,98.16
2022-12-03T06:04:30.936Z,97.69
2022-12-03T06:07:34.100Z,98.07
2022-12-03T06:10:37.165Z,97.26
2022-12-03T06:13:39.960Z,97.38
2022-12-03T06:16:42.728Z,97.18
2022-12-03T06:19:45.585Z,97.29
2022-12-03T06:22:48.669Z,97.06
2022-12-03T06:25:51.422Z,96.80
2022-12-03T06:28:54.228Z,96.42
2022-12-03T06:31:57.123Z,95.82
2022-12-03T06:34:59.873Z,96.02
2022-12-03T06:38:02.734Z,96.09
2022-12-03T06:41:05.619Z,95.65
2022-12-03T06:44:08.372Z,96.16
2022-12-03T06:47:11.210Z,95.66
2022-12-03T06:50:14.160Z,95.86
2022-12-03T06:53:17.005Z,94.89
2022-12-03T06:56:22.241Z,94.62
2022-12-03T06:59:25.529Z,94.78
2022-12-03T07:02:28.480Z,94.69
2022-12-03T07:05:31.262Z,94.95
2022-12-03T07:08:34.372Z,95.30
2022-12-03T07:11:40.774Z,95.05
2022-12-03T07:14:43.651Z,94.89
2022-12-03T07:17:46.431Z,94.68
2022-12-03T07:20:51.344Z,93.38
2022-12-03T07:23:55.986Z,92.44
2022-12-03T07:26:58.794Z,91.30
2022-12-03T07:30:01.627Z,91.09
2022-12-03T07:33:04.509Z,89.25
2022-12-03T07:36:07.693Z,87.02
2022-12-03T07:39:10.876Z,83.18
2022-12-03T07:42:14.944Z,81.10
2022-12-03T07:45:17.909Z,78.22
2022-12-03T07:48:20.683Z,83.06
2022-12-03T07:51:27.376Z,82.48
2022-12-03T07:54:33.307Z,81.70
2022-12-03T07:57:36.078Z,82.68
2022-12-03T08:00:38.868Z,82.60
2022-12-03T08:03:43.123Z,84.12
2022-12-03T08:06:46.234Z,85.23
2022-12-03T08:09:50.102Z,85.96
2022-12-03T08:12:53.893Z,85.84
2022-12-03T08:16:01.182Z,84.96
2022-12-03T08:19:09.653Z,85.51
2022-12-03T08:22:17.033Z,84.36
2022-12-03T08:25:27.256Z,78.69
2022-12-03T08:28:32.037Z,76.78
2022-12-03T08:31:35.106Z,79.63
2022-12-03T08:34:45.039Z,81.18
2022-12-03T08:37:50.440Z,81.51
2022-12-03T08:40:55.468Z,82.54
2022-12-03T08:43:58.778Z,83.16
2022-12-03T08:47:17.138Z,82.25
2022-12-03T08:50:29.013Z,83.05
2022-12-03T08:53:33.576Z,82.86
2022-12-03T08:56:37.747Z,83.22
2022-12-03T08:59:45.354Z,82.21
2022-12-03T09:02:54.111Z,82.11
2022-12-03T09:05:56.897Z,82.11
2022-12-03T09:09:03.792Z,81.63
2022-12-03T09:12:09.977Z,81.72
2022-12-03T09:15:13.319Z,81.58
2022-12-03T09:18:16.189Z,81.67
2022-12-03T09:21:19.622Z,80.29
2022-12-03T09:24:22.897Z,80.73
2022-12-03T09:27:25.656Z,80.13
2022-12-03T09:30:28.455Z,72.69
2022-12-03T09:33:32.638Z,71.47
2022-12-03T09:36:35.502Z,72.30
2022-12-03T09:39:38.244Z,72.48
2022-12-03T09:42:41.558Z,69.01
2022-12-03T09:45:48.610Z,69.91
2022-12-03T09:48:51.443Z,72.78
2022-12-03T09:51:57.608Z,73.30
2022-12-03T09:55:16.027Z,71.27
2022-12-03T09:58:19.948Z,64.87
2022-12-03T10:01:24.280Z,58.73
2022-12-03T10:04:30.146Z,64.90
2022-12-03T10:07:33.135Z,63.64
2022-12-03T10:10:37.529Z,58.54
2022-12-03T10:13:41.274Z,60.27
2022-12-03T10:16:44.259Z,57.12
2022-12-03T10:19:47.527Z,58.62
2022-12-03T10:22:50.379Z,60.11
2022-12-03T10:25:54.702Z,57.39
2022-12-03T10:28:57.403Z,57.46
2022-12-03T10:32:12.002Z,63.39
2022-12-03T10:35:17.320Z,63.43
2022-12-03T10:38:24.273Z,65.08
2022-12-03T10:41:28.607Z,61.65
2022-12-03T10:44:31.457Z,56.14
2022-12-03T10:47:34.482Z,59.99
2022-12-03T10:50:38.220Z,67.85
2022-12-03T10:53:41.731Z,73.16
2022-12-03T10:56:45.517Z,73.57
2022-12-03T10:59:49.709Z,71.21
2022-12-03T11:02:56.768Z,65.48
2022-12-03T11:06:06.350Z,67.27
2022-12-03T11:09:19.818Z,66.63
2022-12-03T11:12:28.206Z,64.83
2022-12-03T11:15:45.464Z,64.21
2022-12-03T11:18:51.287Z,67.50
2022-12-03T11:22:06.419Z,69.02
2022-12-03T11:25:27.333Z,63.93
2022-12-03T11:28:35.896Z,66.38
2022-12-03T11:31:44.222Z,69.71
2022-12-03T11:34:47.191Z,68.07
2022-12-03T11:37:50.028Z,73.25
2022-12-03T11:41:13.475Z,73.18
2022-12-03T11:44:34.300Z,74.32
2022-12-03T11:47:37.044Z,76.91
2022-12-03T11:50:50.164Z,77.63
2022-12-03T11:53:56.652Z,78.07
2022-12-03T11:56:59.509Z,77.51
2022-12-03T12:00:23.456Z,77.14
2022-12-03T12:03:33.419Z,77.86
2022-12-03T12:06:42.669Z,76.82
2022-12-03T12:09:54.413Z,76.08
2022-12-03T12:12:57.497Z,78.02
2022-12-03T12:16:06.181Z,78.28
2022-12-03T12:19:27.751Z,78.83
2022-12-03T12:22:31.280Z,79.89
2022-12-03T12:25:33.970Z,80.66
2022-12-03T12:28:37.937Z,80.68
2022-12-03T12:31:40.746Z,78.97
2022-12-03T12:34:49.753Z,79.92
2022-12-03T12:38:00.019Z,80.71
2022-12-03T12:41:08.067Z,80.85
2022-12-03T12:44:13.233Z,81.12
2022-12-03T12:47:16.080Z,81.22
2022-12-03T12:50:20.027Z,81.88
2022-12-03T12:53:32.088Z,83.00
2022-12-03T12:56:34.989Z,83.32
2022-12-03T12:59:37.901Z,81.95
2022-12-03T13:02:45.218Z,83.22
2022-12-03T13:05:50.079Z,83.37
2022-12-03T13:08:53.478Z,83.68
2022-12-03T13:11:59.456Z,83.85
2022-12-03T13:15:02.300Z,82.90
2022-12-03T13:18:26.418Z,82.45
2022-12-03T13:21:44.215Z,82.78
2022-12-03T13:24:51.302Z,82.78
2022-12-03T13:27:54.062Z,82.41
2022-12-03T13:31:14.334Z,82.28
2022-12-03T13:34:22.359Z,82.88
2022-12-03T13:37:28.533Z,83.48
2022-12-03T13:40:35.217Z,83.45
2022-12-03T13:43:44.448Z,82.88
2022-12-03T13:46:47.743Z,82.66
2022-12-03T13:50:03.792Z,82.35
2022-12-03T13:53:29.706Z,82.19
2022-12-03T13:56:33.135Z,83.07
2022-12-03T13:59:36.019Z,82.32
2022-12-03T14:02:39.254Z,82.46
2022-12-03T14:05:42.055Z,83.64
2022-12-03T14:08:45.041Z,83.75
2022-12-03T14:12:06.355Z,83.44
2022-12-03T14:15:10.982Z,83.21
2022-12-03T14:18:14.075Z,83.52
2022-12-03T14:21:16.912Z,83.68
2022-12-03T14:24:19.819Z,83.54
2022-12-03T14:27:24.840Z,84.02
2022-12-03T14:30:28.925Z,84.75
2022-12-03T14:33:31.685Z,85.12
2022-12-03T14:36:34.465Z,85.34
2022-12-03T14:39:37.374Z,85.00
2022-12-03T14:42:40.367Z,85.16
2022-12-03T14:45:43.361Z,85.80
2022-12-03T14:48:46.196Z,85.44
2022-12-03T14:51:49.180Z,85.83
2022-12-03T14:54:52.179Z,86.13
2022-12-03T14:57:54.993Z,86.21
2022-12-03T15:00:57.880Z,86.70
2022-12-03T15:04:00.792Z,86.26
2022-12-03T15:07:03.854Z,86.99
2022-12-03T15:10:08.290Z,87.23
2022-12-03T15:13:11.121Z,88.03
2022-12-03T15:16:15.238Z,87.98
2022-12-03T15:19:18.140Z,87.98
2022-12-03T15:22:20.974Z,87.91
2022-12-03T15:25:25.658Z,88.50
2022-12-03T15:28:28.480Z,88.17
2022-12-03T15:31:31.360Z,87.62
2022-12-03T15:34:34.306Z,88.14
2022-12-03T15:37:37.095Z,87.63
2022-12-03T15:40:40.357Z,87.86
2022-12-03T15:43:43.882Z,87.44
2022-12-03T15:46:46.816Z,87.29
2022-12-03T15:49:49.702Z,88.22
2022-12-03T15:52:52.638Z,87.36
2022-12-03T15:55:55.342Z,86.99
2022-12-03T15:58:58.980Z,86.86
2022-12-03T16:02:01.901Z,87.21
2022-12-03T16:05:06.752Z,87.01
2022-12-03T16:08:09.515Z,87.15
2022-12-03T16:11:12.531Z,87.30
2022-12-03T16:14:15.431Z,87.12
2022-12-03T16:17:18.363Z,87.30
2022-12-03T16:20:21.289Z,87.59
2022-12-03T16:23:24.250Z,87.42
2022-12-03T16:26:27.385Z,87.78
2022-12-03T16:29:30.945Z,88.07
2022-12-03T16:32:33.779Z,87.96
2022-12-03T16:35:36.563Z,88.83
2022-12-03T16:38:39.705Z,88.74
2022-12-03T16:41:42.671Z,89.15
2022-12-03T16:45:05.973Z,89.52
2022-12-03T16:48:09.017Z,89.66
2022-12-03T16:51:12.134Z,90.81
2022-12-03T16:54:14.919Z,90.89
2022-12-03T16:57:17.751Z,91.61
2022-12-03T17:00:22.076Z,91.46
2022-12-03T17:03:28.982Z,91.55
2022-12-03T17:06:36.364Z,92.27
2022-12-03T17:09:39.395Z,91.87
2022-12-03T17:13:08.265Z,91.71
2022-12-03T17:16:06.899Z,91.94
2022-12-03T17:19:09.969Z,92.11
2022-12-03T17:22:12.944Z,92.10
2022-12-03T17:25:16.636Z,92.34
2022-12-03T17:28:19.737Z,92.60
2022-12-03T17:31:22.664Z,92.28
2022-12-03T17:34:25.509Z,92.92
2022-12-03T17:37:28.388Z,92.93
2022-12-03T17:40:31.177Z,93.34
2022-12-03T17:43:34.240Z,93.17
2022-12-03T17:46:37.254Z,93.35
2022-12-03T17:49:40.707Z,93.57
2022-12-03T17:52:43.532Z,93.60
2022-12-03T17:55:47.109Z,94.06
2022-12-03T17:58:50.370Z,93.81
2022-12-03T18:01:53.210Z,94.06
2022-12-03T18:04:56.006Z,94.08
2022-12-03T18:07:58.967Z,94.18
2022-12-03T18:11:01.818Z,94.44
2022-12-03T18:14:04.709Z,94.44
2022-12-03T18:17:07.485Z,94.12
2022-12-03T18:20:10.638Z,94.66
2022-12-03T18:23:13.916Z,93.99
2022-12-03T18:26:17.144Z,94.25
2022-12-03T18:29:20.310Z,93.13
2022-12-03T18:32:29.393Z,93.91
2022-12-03T18:35:32.826Z,93.19
2022-12-03T18:38:35.749Z,93.24
2022-12-03T18:41:38.783Z,92.70
2022-12-03T18:44:46.352Z,92.65
2022-12-03T18:47:52.333Z,92.47
2022-12-03T18:50:56.591Z,92.83
2022-12-03T18:53:59.538Z,92.02
2022-12-03T18:57:02.323Z,92.68
2022-12-03T19:00:13.066Z,92.71
2022-12-03T19:03:16.585Z,93.00
2022-12-03T19:06:21.320Z,93.00
2022-12-03T19:09:24.562Z,92.57
2022-12-03T19:12:27.811Z,92.57
2022-12-03T19:15:30.800Z,92.73
2022-12-03T19:18:34.219Z,92.25
2022-12-03T19:21:37.498Z,92.16
2022-12-03T19:24:40.750Z,92.33
2022-12-03T19:27:43.655Z,91.87
2022-12-03T19:30:46.587Z,91.79
2022-12-03T19:33:50.985Z,91.83
2022-12-03T19:36:53.752Z,91.71
2022-12-03T19:39:57.412Z,91.78
2022-12-03T19:43:00.844Z,91.96
2022-12-03T19:46:05.188Z,91.63
2022-12-03T19:49:09.495Z,92.25
2022-12-03T19:52:12.552Z,92.30
2022-12-03T19:55:19.629Z,93.04
2022-12-03T19:58:22.520Z,93.25
2022-12-03T20:01:28.772Z,93.23
2022-12-03T20:04:32.006Z,93.65
2022-12-03T20:07:35.444Z,93.44
2022-12-03T20:10:38.578Z,92.42
2022-12-03T20:13:42.706Z,92.57
2022-12-03T20:16:47.493Z,92.85
2022-12-03T20:19:51.728Z,92.81
2022-12-03T20:22:55.055Z,92.83
2022-12-03T20:25:58.494Z,93.06
2022-12-03T20:29:01.661Z,93.20
2022-12-03T20:32:07.230Z,92.50
2022-12-03T20:35:10.478Z,92.64
2022-12-03T20:38:15.043Z,93.20
2022-12-03T20:41:18.822Z,93.02
2022-12-03T20:44:21.815Z,93.30
2022-12-03T20:47:24.896Z,93.60
2022-12-03T20:50:27.970Z,93.67
2022-12-03T20:53:30.963Z,94.02
2022-12-03T20:56:36.490Z,94.13
2022-12-03T20:59:40.973Z,94.25
2022-12-03T21:02:45.287Z,93.89
2022-12-03T21:05:48.348Z,94.04
2022-12-03T21:08:53.919Z,93.83
2022-12-03T21:11:56.984Z,93.39
2022-12-03T21:14:59.764Z,93.74
2022-12-03T21:18:02.780Z,94.10
2022-12-03T21:21:06.848Z,94.30
2022-12-03T21:24:11.721Z,94.66
2022-12-03T21:27:19.996Z,94.38
2022-12-03T21:30:24.645Z,94.74
2022-12-03T21:33:27.992Z,94.66
2022-12-03T21:36:31.197Z,94.20
2022-12-03T21:39:34.121Z,94.51
2022-12-03T21:42:37.445Z,93.96
2022-12-03T21:45:41.239Z,93.94
2022-12-03T21:48:44.955Z,93.95
2022-12-03T21:51:47.958Z,93.61
2022-12-03T21:54:54.254Z,93.47
2022-12-03T21:57:57.043Z,93.39
2022-12-03T22:01:00.194Z,92.96
2022-12-03T22:04:03.446Z,92.82
2022-12-03T22:07:06.829Z,93.29
2022-12-03T22:10:11.336Z,93.18
2022-12-03T22:13:14.144Z,93.44
2022-12-03T22:16:22.205Z,93.46
2022-12-03T22:19:25.807Z,93.99
2022-12-03T22:22:28.727Z,93.92
2022-12-03T22:25:31.467Z,93.93
2022-12-03T22:28:35.144Z,94.30
2022-12-03T22:31:38.217Z,94.67
2022-12-03T22:34:42.218Z,94.31
2022-12-03T22:37:45.031Z,94.39
2022-12-03T22:40:47.856Z,94.46
2022-12-03T22:43:50.847Z,94.45
2022-12-03T22:46:53.777Z,94.63
2022-12-03T22:49:57.771Z,94.02
2022-12-03T22:53:00.712Z,94.45
2022-12-03T22:56:03.521Z,94.62
2022-12-03T22:59:06.385Z,94.28
2022-12-03T23:02:09.156Z,94.37
2022-12-03T23:05:11.903Z,94.48
2022-12-03T23:08:18.302Z,94.51
2022-12-03T23:11:21.810Z,94.80
2022-12-03T23:14:24.627Z,94.97
2022-12-03T23:17:27.403Z,94.61
2022-12-03T23:20:30.236Z,95.18
2022-12-03T23:23:32.991Z,95.11
2022-12-03T23:26:37.527Z,95.11
2022-12-03T23:29:40.485Z,95.64
2022-12-03T23:32:44.579Z,95.70
2022-12-03T23:35:47.478Z,95.80
2022-12-03T23:38:50.679Z,95.91
2022-12-03T23:41:54.084Z,96.59
2022-12-03T23:44:56.885Z,96.70
2022-12-03T23:48:00.121Z,96.58
2022-12-03T23:51:08.131Z,96.35
2022-12-03T23:54:12.282Z,96.44
2022-12-03T23:57:16.229Z,96.74
